sensor_id;sensor_type;location;lat;lon;timestamp;P1;durP1;ratioP1;P2;durP2;ratioP2
15635;SDS011;7917;50.818;6.972;2023-04-03T00:01:02;6.95;;;2.50;;
15635;SDS011;7917;50.818;6.972;2023-04-03T00:06:01;7.28;;;3.13;;
15635;SDS011;7917;50.818;6.972;2023-04-03T00:08:29;6.40;;;2.42;;
15635;SDS011;7917;50.818;6.972;2023-04-03T00:10:56;3.55;;;2.40;;
15635;SDS011;7917;50.818;6.972;2023-04-03T00:13:22;4.15;;;2.33;;
15635;SDS011;7917;50.818;6.972;2023-04-03T00:15:49;6.30;;;2.40;;
15635;SDS011;7917;50.818;6.972;2023-04-03T00:18:15;6.20;;;2.47;;
15635;SDS011;7917;50.818;6.972;2023-04-03T00:20:42;4.55;;;2.45;;
15635;SDS011;7917;50.818;6.972;2023-04-03T00:23:09;8.18;;;2.72;;
15635;SDS011;7917;50.818;6.972;2023-04-03T00:25:35;4.50;;;2.67;;
15635;SDS011;7917;50.818;6.972;2023-04-03T00:28:02;10.65;;;2.92;;
15635;SDS011;7917;50.818;6.972;2023-04-03T00:30:30;5.63;;;2.70;;
15635;SDS011;7917;50.818;6.972;2023-04-03T00:32:57;5.10;;;2.58;;
15635;SDS011;7917;50.818;6.972;2023-04-03T00:35:23;5.18;;;3.03;;
15635;SDS011;7917;50.818;6.972;2023-04-03T00:37:51;3.53;;;2.28;;
15635;SDS011;7917;50.818;6.972;2023-04-03T00:40:18;4.32;;;2.75;;
15635;SDS011;7917;50.818;6.972;2023-04-03T00:42:46;5.20;;;2.85;;
15635;SDS011;7917;50.818;6.972;2023-04-03T00:45:25;5.18;;;2.65;;
15635;SDS011;7917;50.818;6.972;2023-04-03T00:47:55;4.82;;;2.70;;
15635;SDS011;7917;50.818;6.972;2023-04-03T00:50:24;4.90;;;2.58;;
15635;SDS011;7917;50.818;6.972;2023-04-03T00:52:52;4.45;;;3.05;;
15635;SDS011;7917;50.818;6.972;2023-04-03T00:55:19;4.60;;;2.90;;
15635;SDS011;7917;50.818;6.972;2023-04-03T00:57:46;6.22;;;3.17;;
15635;SDS011;7917;50.818;6.972;2023-04-03T01:00:13;5.10;;;2.15;;
15635;SDS011;7917;50.818;6.972;2023-04-03T01:02:44;4.80;;;2.55;;
15635;SDS011;7917;50.818;6.972;2023-04-03T01:05:11;3.45;;;2.45;;
15635;SDS011;7917;50.818;6.972;2023-04-03T01:07:38;5.55;;;3.20;;
15635;SDS011;7917;50.818;6.972;2023-04-03T01:10:07;5.40;;;2.20;;
15635;SDS011;7917;50.818;6.972;2023-04-03T01:12:36;4.95;;;2.70;;
15635;SDS011;7917;50.818;6.972;2023-04-03T01:15:05;4.63;;;2.92;;
15635;SDS011;7917;50.818;6.972;2023-04-03T01:17:36;5.13;;;2.92;;
15635;SDS011;7917;50.818;6.972;2023-04-03T01:20:20;6.68;;;2.97;;
15635;SDS011;7917;50.818;6.972;2023-04-03T01:23:11;6.60;;;2.85;;
15635;SDS011;7917;50.818;6.972;2023-04-03T01:25:53;5.35;;;3.17;;
15635;SDS011;7917;50.818;6.972;2023-04-03T01:28:22;5.00;;;2.95;;
15635;SDS011;7917;50.818;6.972;2023-04-03T01:30:50;4.03;;;2.90;;
15635;SDS011;7917;50.818;6.972;2023-04-03T01:33:24;3.78;;;3.10;;
15635;SDS011;7917;50.818;6.972;2023-04-03T01:35:51;5.90;;;3.08;;
15635;SDS011;7917;50.818;6.972;2023-04-03T01:38:17;5.97;;;3.22;;
15635;SDS011;7917;50.818;6.972;2023-04-03T01:40:45;4.10;;;3.10;;
15635;SDS011;7917;50.818;6.972;2023-04-03T01:43:12;7.38;;;3.28;;
15635;SDS011;7917;50.818;6.972;2023-04-03T01:45:38;6.05;;;3.60;;
15635;SDS011;7917;50.818;6.972;2023-04-03T01:48:05;5.00;;;3.40;;
15635;SDS011;7917;50.818;6.972;2023-04-03T01:52:59;5.78;;;2.97;;
15635;SDS011;7917;50.818;6.972;2023-04-03T01:55:26;6.72;;;3.17;;
15635;SDS011;7917;50.818;6.972;2023-04-03T01:57:52;6.45;;;3.35;;
15635;SDS011;7917;50.818;6.972;2023-04-03T02:00:19;4.82;;;3.17;;
15635;SDS011;7917;50.818;6.972;2023-04-03T02:02:46;6.55;;;3.00;;
15635;SDS011;7917;50.818;6.972;2023-04-03T02:05:12;3.72;;;2.92;;
15635;SDS011;7917;50.818;6.972;2023-04-03T02:07:39;3.60;;;3.25;;
15635;SDS011;7917;50.818;6.972;2023-04-03T02:10:06;3.75;;;2.80;;
15635;SDS011;7917;50.818;6.972;2023-04-03T02:12:33;4.00;;;3.28;;
15635;SDS011;7917;50.818;6.972;2023-04-03T02:14:59;5.68;;;2.83;;
15635;SDS011;7917;50.818;6.972;2023-04-03T02:17:26;5.55;;;3.03;;
15635;SDS011;7917;50.818;6.972;2023-04-03T02:19:53;4.75;;;3.15;;
15635;SDS011;7917;50.818;6.972;2023-04-03T02:22:19;3.35;;;2.72;;
15635;SDS011;7917;50.818;6.972;2023-04-03T02:24:46;4.65;;;2.80;;
15635;SDS011;7917;50.818;6.972;2023-04-03T02:27:13;4.22;;;3.15;;
15635;SDS011;7917;50.818;6.972;2023-04-03T02:29:40;6.95;;;2.92;;
15635;SDS011;7917;50.818;6.972;2023-04-03T02:32:06;7.15;;;3.30;;
15635;SDS011;7917;50.818;6.972;2023-04-03T02:34:33;6.55;;;3.28;;
15635;SDS011;7917;50.818;6.972;2023-04-03T02:36:59;7.75;;;2.80;;
15635;SDS011;7917;50.818;6.972;2023-04-03T02:39:25;6.00;;;3.00;;
15635;SDS011;7917;50.818;6.972;2023-04-03T02:41:53;3.88;;;2.80;;
15635;SDS011;7917;50.818;6.972;2023-04-03T02:44:19;6.05;;;2.65;;
15635;SDS011;7917;50.818;6.972;2023-04-03T02:46:45;4.68;;;2.92;;
15635;SDS011;7917;50.818;6.972;2023-04-03T02:49:12;6.55;;;2.75;;
15635;SDS011;7917;50.818;6.972;2023-04-03T02:51:38;6.97;;;3.15;;
15635;SDS011;7917;50.818;6.972;2023-04-03T02:54:05;4.72;;;3.05;;
15635;SDS011;7917;50.818;6.972;2023-04-03T02:56:32;6.80;;;3.08;;
15635;SDS011;7917;50.818;6.972;2023-04-03T02:58:59;3.17;;;2.88;;
15635;SDS011;7917;50.818;6.972;2023-04-03T03:07:39;4.80;;;2.88;;
15635;SDS011;7917;50.818;6.972;2023-04-03T03:10:06;5.63;;;2.90;;
15635;SDS011;7917;50.818;6.972;2023-04-03T03:12:33;7.07;;;3.20;;
15635;SDS011;7917;50.818;6.972;2023-04-03T03:15:01;7.97;;;2.85;;
15635;SDS011;7917;50.818;6.972;2023-04-03T03:17:27;5.55;;;3.88;;
15635;SDS011;7917;50.818;6.972;2023-04-03T03:19:54;4.70;;;3.28;;
15635;SDS011;7917;50.818;6.972;2023-04-03T03:22:20;5.32;;;3.20;;
15635;SDS011;7917;50.818;6.972;2023-04-03T03:24:46;6.93;;;3.15;;
15635;SDS011;7917;50.818;6.972;2023-04-03T03:27:13;4.78;;;3.35;;
15635;SDS011;7917;50.818;6.972;2023-04-03T03:29:41;4.05;;;3.60;;
15635;SDS011;7917;50.818;6.972;2023-04-03T03:32:08;6.30;;;3.00;;
15635;SDS011;7917;50.818;6.972;2023-04-03T03:34:34;3.60;;;3.20;;
15635;SDS011;7917;50.818;6.972;2023-04-03T03:37:01;6.13;;;3.22;;
15635;SDS011;7917;50.818;6.972;2023-04-03T03:39:27;4.93;;;3.30;;
15635;SDS011;7917;50.818;6.972;2023-04-03T03:41:54;5.10;;;3.03;;
15635;SDS011;7917;50.818;6.972;2023-04-03T03:44:20;4.55;;;3.17;;
15635;SDS011;7917;50.818;6.972;2023-04-03T03:46:47;5.68;;;3.85;;
15635;SDS011;7917;50.818;6.972;2023-04-03T03:49:14;8.20;;;4.13;;
15635;SDS011;7917;50.818;6.972;2023-04-03T03:51:41;5.10;;;3.90;;
15635;SDS011;7917;50.818;6.972;2023-04-03T03:54:07;5.28;;;3.30;;
15635;SDS011;7917;50.818;6.972;2023-04-03T03:56:35;7.18;;;3.78;;
15635;SDS011;7917;50.818;6.972;2023-04-03T03:59:01;4.97;;;3.78;;
15635;SDS011;7917;50.818;6.972;2023-04-03T04:01:28;6.38;;;3.58;;
15635;SDS011;7917;50.818;6.972;2023-04-03T04:03:55;8.00;;;3.80;;
15635;SDS011;7917;50.818;6.972;2023-04-03T04:06:22;7.32;;;3.85;;
15635;SDS011;7917;50.818;6.972;2023-04-03T04:08:49;6.68;;;3.60;;
15635;SDS011;7917;50.818;6.972;2023-04-03T04:11:15;5.50;;;4.18;;
15635;SDS011;7917;50.818;6.972;2023-04-03T04:13:42;4.82;;;4.25;;
15635;SDS011;7917;50.818;6.972;2023-04-03T04:16:09;8.88;;;4.45;;
15635;SDS011;7917;50.818;6.972;2023-04-03T04:18:35;9.00;;;4.57;;
15635;SDS011;7917;50.818;6.972;2023-04-03T04:21:02;9.38;;;4.78;;
15635;SDS011;7917;50.818;6.972;2023-04-03T04:23:29;9.68;;;4.57;;
15635;SDS011;7917;50.818;6.972;2023-04-03T04:25:56;4.82;;;4.40;;
15635;SDS011;7917;50.818;6.972;2023-04-03T04:28:22;5.47;;;4.18;;
15635;SDS011;7917;50.818;6.972;2023-04-03T04:30:48;7.65;;;4.85;;
15635;SDS011;7917;50.818;6.972;2023-04-03T04:33:15;8.13;;;4.78;;
15635;SDS011;7917;50.818;6.972;2023-04-03T04:35:41;7.57;;;4.40;;
15635;SDS011;7917;50.818;6.972;2023-04-03T04:38:08;7.68;;;6.47;;
15635;SDS011;7917;50.818;6.972;2023-04-03T04:40:36;8.48;;;4.75;;
15635;SDS011;7917;50.818;6.972;2023-04-03T04:43:02;5.20;;;4.55;;
15635;SDS011;7917;50.818;6.972;2023-04-03T04:45:29;8.77;;;4.57;;
15635;SDS011;7917;50.818;6.972;2023-04-03T04:47:55;9.02;;;4.68;;
15635;SDS011;7917;50.818;6.972;2023-04-03T04:50:22;9.00;;;5.05;;
15635;SDS011;7917;50.818;6.972;2023-04-03T04:52:48;9.43;;;4.90;;
15635;SDS011;7917;50.818;6.972;2023-04-03T04:55:15;6.90;;;4.80;;
15635;SDS011;7917;50.818;6.972;2023-04-03T04:57:43;6.25;;;4.60;;
15635;SDS011;7917;50.818;6.972;2023-04-03T05:00:10;6.50;;;5.28;;
15635;SDS011;7917;50.818;6.972;2023-04-03T05:02:37;7.90;;;4.75;;
15635;SDS011;7917;50.818;6.972;2023-04-03T05:05:04;7.28;;;4.70;;
15635;SDS011;7917;50.818;6.972;2023-04-03T05:07:30;9.18;;;4.95;;
15635;SDS011;7917;50.818;6.972;2023-04-03T05:09:57;8.02;;;5.00;;
15635;SDS011;7917;50.818;6.972;2023-04-03T05:12:24;8.75;;;5.00;;
15635;SDS011;7917;50.818;6.972;2023-04-03T05:14:51;7.78;;;5.18;;
15635;SDS011;7917;50.818;6.972;2023-04-03T05:17:17;6.47;;;5.10;;
15635;SDS011;7917;50.818;6.972;2023-04-03T05:19:44;9.40;;;5.38;;
15635;SDS011;7917;50.818;6.972;2023-04-03T05:22:11;7.22;;;4.72;;
15635;SDS011;7917;50.818;6.972;2023-04-03T05:24:37;7.18;;;4.78;;
15635;SDS011;7917;50.818;6.972;2023-04-03T05:27:04;10.60;;;4.75;;
15635;SDS011;7917;50.818;6.972;2023-04-03T05:29:31;10.45;;;4.80;;
15635;SDS011;7917;50.818;6.972;2023-04-03T05:31:58;7.03;;;4.43;;
15635;SDS011;7917;50.818;6.972;2023-04-03T05:34:24;6.20;;;3.90;;
15635;SDS011;7917;50.818;6.972;2023-04-03T05:36:51;8.18;;;4.75;;
15635;SDS011;7917;50.818;6.972;2023-04-03T05:39:18;5.97;;;3.92;;
15635;SDS011;7917;50.818;6.972;2023-04-03T05:41:45;6.70;;;3.80;;
15635;SDS011;7917;50.818;6.972;2023-04-03T05:44:11;9.10;;;5.32;;
15635;SDS011;7917;50.818;6.972;2023-04-03T05:46:38;6.07;;;3.35;;
15635;SDS011;7917;50.818;6.972;2023-04-03T05:49:05;5.35;;;3.03;;
15635;SDS011;7917;50.818;6.972;2023-04-03T05:51:33;9.85;;;3.88;;
15635;SDS011;7917;50.818;6.972;2023-04-03T05:54:03;4.95;;;3.75;;
15635;SDS011;7917;50.818;6.972;2023-04-03T05:56:32;9.48;;;3.88;;
15635;SDS011;7917;50.818;6.972;2023-04-03T05:58:59;6.00;;;2.55;;
15635;SDS011;7917;50.818;6.972;2023-04-03T06:01:26;8.25;;;3.28;;
15635;SDS011;7917;50.818;6.972;2023-04-03T06:03:53;5.20;;;3.13;;
15635;SDS011;7917;50.818;6.972;2023-04-03T06:06:20;6.50;;;3.10;;
15635;SDS011;7917;50.818;6.972;2023-04-03T06:08:47;7.80;;;2.92;;
15635;SDS011;7917;50.818;6.972;2023-04-03T06:11:14;4.57;;;2.40;;
15635;SDS011;7917;50.818;6.972;2023-04-03T06:13:41;7.25;;;2.88;;
15635;SDS011;7917;50.818;6.972;2023-04-03T06:16:08;7.95;;;2.90;;
15635;SDS011;7917;50.818;6.972;2023-04-03T06:18:39;3.33;;;2.70;;
15635;SDS011;7917;50.818;6.972;2023-04-03T06:21:06;5.78;;;2.35;;
15635;SDS011;7917;50.818;6.972;2023-04-03T06:23:40;6.53;;;2.75;;
15635;SDS011;7917;50.818;6.972;2023-04-03T06:26:07;6.00;;;2.70;;
15635;SDS011;7917;50.818;6.972;2023-04-03T06:28:33;4.20;;;2.97;;
15635;SDS011;7917;50.818;6.972;2023-04-03T06:30:59;8.45;;;2.47;;
15635;SDS011;7917;50.818;6.972;2023-04-03T06:33:26;7.50;;;2.60;;
15635;SDS011;7917;50.818;6.972;2023-04-03T06:35:57;4.90;;;2.58;;
15635;SDS011;7917;50.818;6.972;2023-04-03T06:38:26;8.82;;;2.72;;
15635;SDS011;7917;50.818;6.972;2023-04-03T06:40:53;5.53;;;2.17;;
15635;SDS011;7917;50.818;6.972;2023-04-03T06:43:19;2.83;;;2.03;;
15635;SDS011;7917;50.818;6.972;2023-04-03T06:45:46;4.53;;;1.70;;
15635;SDS011;7917;50.818;6.972;2023-04-03T06:48:13;5.70;;;2.15;;
15635;SDS011;7917;50.818;6.972;2023-04-03T06:50:39;5.78;;;2.33;;
15635;SDS011;7917;50.818;6.972;2023-04-03T06:53:06;3.63;;;2.03;;
15635;SDS011;7917;50.818;6.972;2023-04-03T06:55:32;3.85;;;2.08;;
15635;SDS011;7917;50.818;6.972;2023-04-03T06:58:00;6.55;;;2.00;;
15635;SDS011;7917;50.818;6.972;2023-04-03T07:00:27;4.97;;;1.83;;
15635;SDS011;7917;50.818;6.972;2023-04-03T07:02:53;2.63;;;1.80;;
15635;SDS011;7917;50.818;6.972;2023-04-03T07:05:21;3.67;;;1.65;;
15635;SDS011;7917;50.818;6.972;2023-04-03T07:07:48;4.80;;;1.60;;
15635;SDS011;7917;50.818;6.972;2023-04-03T07:10:15;3.30;;;1.70;;
15635;SDS011;7917;50.818;6.972;2023-04-03T07:12:41;3.78;;;1.75;;
15635;SDS011;7917;50.818;6.972;2023-04-03T07:15:09;4.35;;;2.35;;
15635;SDS011;7917;50.818;6.972;2023-04-03T07:17:37;6.82;;;2.22;;
15635;SDS011;7917;50.818;6.972;2023-04-03T07:20:04;7.68;;;2.05;;
15635;SDS011;7917;50.818;6.972;2023-04-03T07:22:31;9.18;;;2.97;;
15635;SDS011;7917;50.818;6.972;2023-04-03T07:24:58;3.05;;;2.20;;
15635;SDS011;7917;50.818;6.972;2023-04-03T07:27:25;5.32;;;1.90;;
15635;SDS011;7917;50.818;6.972;2023-04-03T07:29:52;4.03;;;1.92;;
15635;SDS011;7917;50.818;6.972;2023-04-03T07:32:19;4.43;;;1.80;;
15635;SDS011;7917;50.818;6.972;2023-04-03T07:34:45;5.93;;;1.85;;
15635;SDS011;7917;50.818;6.972;2023-04-03T07:37:12;5.78;;;2.20;;
15635;SDS011;7917;50.818;6.972;2023-04-03T07:39:38;4.97;;;1.88;;
15635;SDS011;7917;50.818;6.972;2023-04-03T07:42:05;8.55;;;2.30;;
15635;SDS011;7917;50.818;6.972;2023-04-03T07:44:32;7.97;;;1.98;;
15635;SDS011;7917;50.818;6.972;2023-04-03T07:46:58;5.53;;;1.98;;
15635;SDS011;7917;50.818;6.972;2023-04-03T07:49:26;8.50;;;2.00;;
15635;SDS011;7917;50.818;6.972;2023-04-03T07:51:53;3.15;;;2.03;;
15635;SDS011;7917;50.818;6.972;2023-04-03T07:54:20;6.63;;;2.28;;
15635;SDS011;7917;50.818;6.972;2023-04-03T07:56:47;6.20;;;2.25;;
15635;SDS011;7917;50.818;6.972;2023-04-03T07:59:14;5.63;;;2.30;;
15635;SDS011;7917;50.818;6.972;2023-04-03T08:01:40;5.68;;;2.25;;
15635;SDS011;7917;50.818;6.972;2023-04-03T08:04:07;4.72;;;1.75;;
15635;SDS011;7917;50.818;6.972;2023-04-03T08:06:34;10.90;;;2.30;;
15635;SDS011;7917;50.818;6.972;2023-04-03T08:09:05;6.50;;;2.60;;
15635;SDS011;7917;50.818;6.972;2023-04-03T08:11:31;4.90;;;1.60;;
15635;SDS011;7917;50.818;6.972;2023-04-03T08:13:58;6.80;;;2.13;;
15635;SDS011;7917;50.818;6.972;2023-04-03T08:16:25;6.00;;;2.40;;
15635;SDS011;7917;50.818;6.972;2023-04-03T08:18:53;6.90;;;2.90;;
15635;SDS011;7917;50.818;6.972;2023-04-03T08:21:19;8.50;;;2.10;;
15635;SDS011;7917;50.818;6.972;2023-04-03T08:23:48;4.80;;;1.90;;
15635;SDS011;7917;50.818;6.972;2023-04-03T08:26:16;5.30;;;1.92;;
15635;SDS011;7917;50.818;6.972;2023-04-03T08:28:44;4.28;;;1.60;;
15635;SDS011;7917;50.818;6.972;2023-04-03T08:31:11;6.00;;;1.92;;
15635;SDS011;7917;50.818;6.972;2023-04-03T08:33:40;7.07;;;2.33;;
15635;SDS011;7917;50.818;6.972;2023-04-03T08:36:07;7.50;;;2.38;;
15635;SDS011;7917;50.818;6.972;2023-04-03T08:38:42;5.05;;;2.10;;
15635;SDS011;7917;50.818;6.972;2023-04-03T08:41:11;4.68;;;2.08;;
15635;SDS011;7917;50.818;6.972;2023-04-03T08:43:46;2.90;;;1.67;;
15635;SDS011;7917;50.818;6.972;2023-04-03T08:46:36;5.65;;;2.00;;
15635;SDS011;7917;50.818;6.972;2023-04-03T08:49:10;4.47;;;1.92;;
15635;SDS011;7917;50.818;6.972;2023-04-03T08:51:41;3.83;;;1.85;;
15635;SDS011;7917;50.818;6.972;2023-04-03T08:54:14;5.22;;;1.67;;
15635;SDS011;7917;50.818;6.972;2023-04-03T08:56:51;3.55;;;1.83;;
15635;SDS011;7917;50.818;6.972;2023-04-03T08:59:19;6.93;;;2.22;;
15635;SDS011;7917;50.818;6.972;2023-04-03T09:01:51;3.70;;;1.70;;
15635;SDS011;7917;50.818;6.972;2023-04-03T09:04:19;4.15;;;2.33;;
15635;SDS011;7917;50.818;6.972;2023-04-03T09:06:47;2.78;;;1.88;;
15635;SDS011;7917;50.818;6.972;2023-04-03T09:09:21;5.80;;;2.10;;
15635;SDS011;7917;50.818;6.972;2023-04-03T09:11:58;6.97;;;2.22;;
15635;SDS011;7917;50.818;6.972;2023-04-03T09:14:36;4.15;;;1.90;;
15635;SDS011;7917;50.818;6.972;2023-04-03T09:17:09;7.03;;;2.28;;
15635;SDS011;7917;50.818;6.972;2023-04-03T09:19:41;3.42;;;1.48;;
15635;SDS011;7917;50.818;6.972;2023-04-03T09:22:13;5.47;;;2.00;;
15635;SDS011;7917;50.818;6.972;2023-04-03T09:24:43;4.47;;;1.70;;
15635;SDS011;7917;50.818;6.972;2023-04-03T09:27:13;4.55;;;1.50;;
15635;SDS011;7917;50.818;6.972;2023-04-03T09:29:40;3.72;;;1.73;;
15635;SDS011;7917;50.818;6.972;2023-04-03T09:32:18;4.25;;;1.52;;
15635;SDS011;7917;50.818;6.972;2023-04-03T09:34:48;5.43;;;1.98;;
15635;SDS011;7917;50.818;6.972;2023-04-03T09:40:04;3.35;;;1.85;;
15635;SDS011;7917;50.818;6.972;2023-04-03T09:42:32;3.85;;;1.42;;
15635;SDS011;7917;50.818;6.972;2023-04-03T09:45:04;3.67;;;1.65;;
15635;SDS011;7917;50.818;6.972;2023-04-03T09:47:47;5.18;;;1.40;;
15635;SDS011;7917;50.818;6.972;2023-04-03T09:50:21;5.18;;;1.65;;
15635;SDS011;7917;50.818;6.972;2023-04-03T09:52:49;3.75;;;1.80;;
15635;SDS011;7917;50.818;6.972;2023-04-03T09:55:18;2.80;;;1.83;;
15635;SDS011;7917;50.818;6.972;2023-04-03T09:57:52;4.85;;;1.95;;
15635;SDS011;7917;50.818;6.972;2023-04-03T10:00:20;4.72;;;1.73;;
15635;SDS011;7917;50.818;6.972;2023-04-03T10:02:49;3.28;;;1.45;;
15635;SDS011;7917;50.818;6.972;2023-04-03T10:05:27;2.72;;;1.80;;
15635;SDS011;7917;50.818;6.972;2023-04-03T10:08:07;1.98;;;1.48;;
15635;SDS011;7917;50.818;6.972;2023-04-03T10:10:35;7.10;;;1.15;;
15635;SDS011;7917;50.818;6.972;2023-04-03T10:13:10;3.65;;;1.88;;
15635;SDS011;7917;50.818;6.972;2023-04-03T10:15:40;3.50;;;1.30;;
15635;SDS011;7917;50.818;6.972;2023-04-03T10:18:14;4.63;;;1.60;;
15635;SDS011;7917;50.818;6.972;2023-04-03T10:20:53;2.58;;;1.33;;
15635;SDS011;7917;50.818;6.972;2023-04-03T10:23:26;2.55;;;1.05;;
15635;SDS011;7917;50.818;6.972;2023-04-03T10:25:59;2.03;;;1.27;;
15635;SDS011;7917;50.818;6.972;2023-04-03T10:28:38;1.73;;;1.30;;
15635;SDS011;7917;50.818;6.972;2023-04-03T10:31:12;1.73;;;1.10;;
15635;SDS011;7917;50.818;6.972;2023-04-03T10:33:50;5.43;;;1.50;;
15635;SDS011;7917;50.818;6.972;2023-04-03T10:36:25;4.63;;;1.65;;
15635;SDS011;7917;50.818;6.972;2023-04-03T10:39:01;4.43;;;1.20;;
15635;SDS011;7917;50.818;6.972;2023-04-03T10:41:36;6.00;;;2.88;;
15635;SDS011;7917;50.818;6.972;2023-04-03T10:44:14;7.20;;;1.33;;
15635;SDS011;7917;50.818;6.972;2023-04-03T10:46:47;4.20;;;1.63;;
15635;SDS011;7917;50.818;6.972;2023-04-03T10:49:20;4.88;;;1.25;;
15635;SDS011;7917;50.818;6.972;2023-04-03T10:51:57;3.60;;;1.27;;
15635;SDS011;7917;50.818;6.972;2023-04-03T10:54:32;3.75;;;1.33;;
15635;SDS011;7917;50.818;6.972;2023-04-03T10:57:04;4.65;;;1.65;;
15635;SDS011;7917;50.818;6.972;2023-04-03T10:59:35;3.40;;;1.33;;
15635;SDS011;7917;50.818;6.972;2023-04-03T11:02:06;3.65;;;1.55;;
15635;SDS011;7917;50.818;6.972;2023-04-03T11:04:40;2.47;;;1.30;;
15635;SDS011;7917;50.818;6.972;2023-04-03T11:07:11;1.75;;;1.40;;
15635;SDS011;7917;50.818;6.972;2023-04-03T11:09:42;6.10;;;1.55;;
15635;SDS011;7917;50.818;6.972;2023-04-03T11:12:13;4.47;;;2.42;;
15635;SDS011;7917;50.818;6.972;2023-04-03T11:14:43;4.53;;;1.75;;
15635;SDS011;7917;50.818;6.972;2023-04-03T11:17:21;2.38;;;1.13;;
15635;SDS011;7917;50.818;6.972;2023-04-03T11:19:59;4.60;;;1.65;;
15635;SDS011;7917;50.818;6.972;2023-04-03T11:22:36;2.80;;;1.27;;
15635;SDS011;7917;50.818;6.972;2023-04-03T11:25:13;2.97;;;1.38;;
15635;SDS011;7917;50.818;6.972;2023-04-03T11:27:48;4.32;;;1.50;;
15635;SDS011;7917;50.818;6.972;2023-04-03T11:30:21;3.20;;;1.17;;
15635;SDS011;7917;50.818;6.972;2023-04-03T11:32:58;4.22;;;1.80;;
15635;SDS011;7917;50.818;6.972;2023-04-03T11:35:42;3.13;;;1.20;;
15635;SDS011;7917;50.818;6.972;2023-04-03T11:38:13;3.45;;;1.33;;
15635;SDS011;7917;50.818;6.972;2023-04-03T11:40:48;3.88;;;1.55;;
15635;SDS011;7917;50.818;6.972;2023-04-03T11:43:23;3.90;;;1.30;;
15635;SDS011;7917;50.818;6.972;2023-04-03T11:45:55;2.85;;;1.75;;
15635;SDS011;7917;50.818;6.972;2023-04-03T11:48:48;2.05;;;1.10;;
15635;SDS011;7917;50.818;6.972;2023-04-03T11:51:40;3.55;;;1.85;;
15635;SDS011;7917;50.818;6.972;2023-04-03T12:03:32;3.63;;;1.25;;
15635;SDS011;7917;50.818;6.972;2023-04-03T12:15:21;2.80;;;1.20;;
15635;SDS011;7917;50.818;6.972;2023-04-03T12:21:08;2.60;;;1.05;;
15635;SDS011;7917;50.818;6.972;2023-04-03T12:23:35;4.75;;;1.30;;
15635;SDS011;7917;50.818;6.972;2023-04-03T12:26:22;3.03;;;1.08;;
15635;SDS011;7917;50.818;6.972;2023-04-03T12:28:52;2.60;;;1.08;;
15635;SDS011;7917;50.818;6.972;2023-04-03T12:31:20;2.45;;;1.10;;
15635;SDS011;7917;50.818;6.972;2023-04-03T12:36:45;1.55;;;1.00;;
15635;SDS011;7917;50.818;6.972;2023-04-03T12:39:26;2.83;;;1.20;;
15635;SDS011;7917;50.818;6.972;2023-04-03T12:42:17;4.25;;;1.30;;
15635;SDS011;7917;50.818;6.972;2023-04-03T12:44:54;1.60;;;1.23;;
15635;SDS011;7917;50.818;6.972;2023-04-03T12:47:27;1.45;;;0.90;;
15635;SDS011;7917;50.818;6.972;2023-04-03T12:49:58;1.80;;;1.05;;
15635;SDS011;7917;50.818;6.972;2023-04-03T12:52:33;2.50;;;0.90;;
15635;SDS011;7917;50.818;6.972;2023-04-03T12:55:07;4.70;;;2.20;;
15635;SDS011;7917;50.818;6.972;2023-04-03T12:57:40;2.78;;;1.30;;
15635;SDS011;7917;50.818;6.972;2023-04-03T13:02:57;2.08;;;1.15;;
15635;SDS011;7917;50.818;6.972;2023-04-03T13:05:26;1.60;;;1.00;;
15635;SDS011;7917;50.818;6.972;2023-04-03T13:07:56;2.28;;;1.20;;
15635;SDS011;7917;50.818;6.972;2023-04-03T13:10:28;3.97;;;1.25;;
15635;SDS011;7917;50.818;6.972;2023-04-03T13:12:58;2.95;;;1.10;;
15635;SDS011;7917;50.818;6.972;2023-04-03T13:15:40;1.48;;;1.00;;
15635;SDS011;7917;50.818;6.972;2023-04-03T13:18:20;2.45;;;0.93;;
15635;SDS011;7917;50.818;6.972;2023-04-03T13:20:49;2.83;;;1.35;;
15635;SDS011;7917;50.818;6.972;2023-04-03T13:23:16;4.20;;;1.20;;
15635;SDS011;7917;50.818;6.972;2023-04-03T13:25:46;2.33;;;1.20;;
15635;SDS011;7917;50.818;6.972;2023-04-03T13:28:15;1.75;;;1.00;;
15635;SDS011;7917;50.818;6.972;2023-04-03T13:33:31;3.38;;;1.50;;
15635;SDS011;7917;50.818;6.972;2023-04-03T13:36:05;2.50;;;1.10;;
15635;SDS011;7917;50.818;6.972;2023-04-03T13:38:33;5.43;;;1.83;;
15635;SDS011;7917;50.818;6.972;2023-04-03T13:41:02;2.50;;;1.10;;
15635;SDS011;7917;50.818;6.972;2023-04-03T13:43:31;3.67;;;1.40;;
15635;SDS011;7917;50.818;6.972;2023-04-03T13:46:01;5.50;;;1.45;;
15635;SDS011;7917;50.818;6.972;2023-04-03T13:48:48;2.78;;;1.33;;
15635;SDS011;7917;50.818;6.972;2023-04-03T13:51:21;4.65;;;1.70;;
15635;SDS011;7917;50.818;6.972;2023-04-03T13:53:51;2.92;;;1.52;;
15635;SDS011;7917;50.818;6.972;2023-04-03T13:56:21;2.97;;;1.15;;
15635;SDS011;7917;50.818;6.972;2023-04-03T13:58:53;1.60;;;1.08;;
15635;SDS011;7917;50.818;6.972;2023-04-03T14:01:21;5.30;;;1.45;;
15635;SDS011;7917;50.818;6.972;2023-04-03T14:03:52;3.10;;;1.55;;
15635;SDS011;7917;50.818;6.972;2023-04-03T14:06:21;3.03;;;1.17;;
15635;SDS011;7917;50.818;6.972;2023-04-03T14:08:49;2.45;;;1.20;;
15635;SDS011;7917;50.818;6.972;2023-04-03T14:11:16;2.72;;;0.95;;
15635;SDS011;7917;50.818;6.972;2023-04-03T14:13:46;1.20;;;0.98;;
15635;SDS011;7917;50.818;6.972;2023-04-03T14:16:14;3.15;;;1.10;;
15635;SDS011;7917;50.818;6.972;2023-04-03T14:18:42;3.70;;;1.20;;
15635;SDS011;7917;50.818;6.972;2023-04-03T14:21:10;5.65;;;1.17;;
15635;SDS011;7917;50.818;6.972;2023-04-03T14:23:39;5.43;;;1.38;;
15635;SDS011;7917;50.818;6.972;2023-04-03T14:26:10;3.80;;;1.40;;
15635;SDS011;7917;50.818;6.972;2023-04-03T14:28:38;5.53;;;1.50;;
15635;SDS011;7917;50.818;6.972;2023-04-03T14:31:05;5.40;;;1.42;;
15635;SDS011;7917;50.818;6.972;2023-04-03T14:33:32;4.28;;;1.48;;
15635;SDS011;7917;50.818;6.972;2023-04-03T14:36:01;2.22;;;1.27;;
15635;SDS011;7917;50.818;6.972;2023-04-03T14:38:31;4.40;;;1.38;;
15635;SDS011;7917;50.818;6.972;2023-04-03T14:40:58;2.40;;;1.27;;
15635;SDS011;7917;50.818;6.972;2023-04-03T14:43:25;2.20;;;1.10;;
15635;SDS011;7917;50.818;6.972;2023-04-03T14:45:52;2.75;;;1.58;;
15635;SDS011;7917;50.818;6.972;2023-04-03T14:48:19;3.25;;;1.30;;
15635;SDS011;7917;50.818;6.972;2023-04-03T14:50:47;4.35;;;1.52;;
15635;SDS011;7917;50.818;6.972;2023-04-03T14:53:15;4.20;;;1.40;;
15635;SDS011;7917;50.818;6.972;2023-04-03T14:55:44;1.65;;;1.25;;
15635;SDS011;7917;50.818;6.972;2023-04-03T14:58:13;3.65;;;1.20;;
15635;SDS011;7917;50.818;6.972;2023-04-03T15:00:40;1.80;;;1.20;;
15635;SDS011;7917;50.818;6.972;2023-04-03T15:03:09;3.80;;;1.20;;
15635;SDS011;7917;50.818;6.972;2023-04-03T15:05:40;2.78;;;1.20;;
15635;SDS011;7917;50.818;6.972;2023-04-03T15:08:08;2.70;;;1.42;;
15635;SDS011;7917;50.818;6.972;2023-04-03T15:10:43;2.08;;;1.38;;
15635;SDS011;7917;50.818;6.972;2023-04-03T15:13:10;4.47;;;1.30;;
15635;SDS011;7917;50.818;6.972;2023-04-03T15:15:38;4.57;;;1.73;;
15635;SDS011;7917;50.818;6.972;2023-04-03T15:18:05;3.33;;;1.50;;
15635;SDS011;7917;50.818;6.972;2023-04-03T15:20:32;2.20;;;1.20;;
15635;SDS011;7917;50.818;6.972;2023-04-03T15:22:59;4.55;;;2.05;;
15635;SDS011;7917;50.818;6.972;2023-04-03T15:25:26;3.35;;;1.27;;
15635;SDS011;7917;50.818;6.972;2023-04-03T15:27:53;3.17;;;1.40;;
15635;SDS011;7917;50.818;6.972;2023-04-03T15:30:21;2.00;;;1.20;;
15635;SDS011;7917;50.818;6.972;2023-04-03T15:32:48;4.18;;;2.40;;
15635;SDS011;7917;50.818;6.972;2023-04-03T15:35:14;6.32;;;3.33;;
15635;SDS011;7917;50.818;6.972;2023-04-03T15:37:41;4.15;;;1.70;;
15635;SDS011;7917;50.818;6.972;2023-04-03T15:40:08;4.55;;;1.60;;
15635;SDS011;7917;50.818;6.972;2023-04-03T15:42:35;2.30;;;1.33;;
15635;SDS011;7917;50.818;6.972;2023-04-03T15:45:02;6.45;;;2.20;;
15635;SDS011;7917;50.818;6.972;2023-04-03T15:47:30;3.55;;;1.25;;
15635;SDS011;7917;50.818;6.972;2023-04-03T15:52:44;6.03;;;1.77;;
15635;SDS011;7917;50.818;6.972;2023-04-03T15:55:11;4.53;;;1.45;;
15635;SDS011;7917;50.818;6.972;2023-04-03T15:57:37;3.92;;;1.30;;
15635;SDS011;7917;50.818;6.972;2023-04-03T16:00:04;5.57;;;2.22;;